Time;durP1;ratioP1;P1;durP2;ratioP2;P2;SDS_P1;SDS_P2;PMS_P1;PMS_P2;Temp;Humidity;BMP_temperature;BMP_pressure;BME280_temperature;BME280_humidity;BME280_pressure;Samples;Min_cycle;Max_cycle;Signal;HPM_P1;HPM_P2
2023/06/08 00:02:00;;;;;;;;;;;13.00;99.90;;;;;;5132134;28;20166;-64
2023/06/08 00:04:30;;;;;;;;;;;13.00;99.90;;;;;;5133215;27;19924;-63
2023/06/08 00:06:56;;;;;;;;;;;12.90;99.90;;;;;;5132163;27;19923;-64
2023/06/08 00:09:21;;;;;;;;;;;12.90;99.90;;;;;;5135683;27;20373;-65
2023/06/08 00:11:48;;;;;;;;;;;12.90;99.90;;;;;;5137563;27;19976;-65
2023/06/08 00:14:13;;;;;;;;;;;12.90;99.90;;;;;;5136719;27;20010;-65
2023/06/08 00:16:39;;;;;;;;;;;12.90;99.90;;;;;;5137093;27;20026;-64
2023/06/08 00:19:07;;;;;;;;;;;12.90;99.90;;;;;;5118736;27;19935;-65
2023/06/08 00:21:33;;;;;;;;;;;12.90;99.90;;;;;;5135742;27;20266;-65
2023/06/08 00:23:58;;;;;;;;;;;12.90;99.90;;;;;;5135675;27;19923;-64
2023/06/08 00:26:25;;;;;;;;;;;12.90;99.90;;;;;;5136982;27;19928;-64
2023/06/08 00:28:51;;;;;;;;;;;12.80;99.90;;;;;;5135766;27;20057;-64
2023/06/08 00:31:16;;;;;;;;;;;12.70;99.90;;;;;;5135567;27;19984;-65
2023/06/08 00:33:42;;;;;;;;;;;12.70;99.90;;;;;;5136750;27;19930;-65
2023/06/08 00:36:08;;;;;;;;;;;12.70;99.90;;;;;;5136485;27;19927;-65
2023/06/08 00:38:36;;;;;;;;;;;12.70;99.90;;;;;;5135647;27;19928;-64
2023/06/08 00:41:02;;;;;;;;;;;12.60;99.90;;;;;;5135394;27;19923;-65
2023/06/08 00:43:28;;;;;;;;;;;12.70;99.90;;;;;;5136622;27;20068;-64
2023/06/08 00:45:57;;;;;;;;;;;12.70;99.90;;;;;;5136578;27;19927;-64
2023/06/08 00:48:23;;;;;;;;;;;12.70;99.90;;;;;;5136844;27;20015;-64
2023/06/08 00:50:50;;;;;;;;;;;12.60;99.90;;;;;;5135127;27;19923;-63
2023/06/08 00:53:16;;;;;;;;;;;12.60;99.90;;;;;;5134846;27;20368;-64
2023/06/08 00:55:43;;;;;;;;;;;12.60;99.90;;;;;;5134975;27;20365;-65
2023/06/08 00:58:13;;;;;;;;;;;12.60;99.90;;;;;;5136163;27;19924;-65
2023/06/08 01:00:40;;;;;;;;;;;12.60;99.90;;;;;;5136603;27;20018;-64
2023/06/08 01:03:06;;;;;;;;;;;12.50;99.90;;;;;;5135951;27;20003;-64
2023/06/08 01:05:32;;;;;;;;;;;12.60;99.90;;;;;;5136172;27;19924;-64
2023/06/08 01:08:17;;;;;;;;;;;12.60;99.90;;;;;;5134621;27;19947;-65
2023/06/08 01:10:48;;;;;;;;;;;12.50;99.90;;;;;;5136057;27;20265;-65
2023/06/08 01:13:27;;;;;;;;;;;12.50;99.90;;;;;;5134401;27;20404;-64
2023/06/08 01:15:56;;;;;;;;;;;12.60;99.90;;;;;;5136104;27;19927;-64
2023/06/08 01:18:23;;;;;;;;;;;12.50;99.90;;;;;;5133986;27;20376;-64
2023/06/08 01:21:07;;;;;;;;;;;12.50;99.90;;;;;;5134797;27;20337;-64
2023/06/08 01:23:51;;;;;;;;;;;12.50;99.90;;;;;;5135928;27;19930;-64
2023/06/08 01:26:18;;;;;;;;;;;12.60;99.90;;;;;;5134267;27;19923;-65
2023/06/08 01:28:48;;;;;;;;;;;12.50;99.90;;;;;;5135731;27;19923;-64
2023/06/08 01:31:13;;;;;;;;;;;12.50;99.90;;;;;;5135035;27;20384;-64
2023/06/08 01:33:39;;;;;;;;;;;12.50;99.90;;;;;;5135745;27;19968;-64
2023/06/08 01:36:20;;;;;;;;;;;12.50;99.90;;;;;;5135287;27;20055;-64
2023/06/08 01:38:51;;;;;;;;;;;12.50;99.90;;;;;;5134579;27;20158;-65
2023/06/08 01:41:22;;;;;;;;;;;12.50;99.90;;;;;;5134148;27;19923;-66
2023/06/08 01:43:48;;;;;;;;;;;12.50;99.90;;;;;;5135473;27;19937;-64
2023/06/08 01:46:15;;;;;;;;;;;12.50;99.90;;;;;;5133789;27;20310;-64
2023/06/08 01:48:43;;;;;;;;;;;12.50;99.90;;;;;;5135462;27;19924;-65
2023/06/08 01:51:09;;;;;;;;;;;12.50;99.90;;;;;;5135036;27;19931;-64
2023/06/08 01:53:35;;;;;;;;;;;12.50;99.90;;;;;;5135061;27;19923;-64
2023/06/08 01:56:01;;;;;;;;;;;12.40;99.90;;;;;;5134311;27;20383;-64
2023/06/08 01:58:26;;;;;;;;;;;12.50;99.90;;;;;;5116843;27;20265;-65
2023/06/08 02:00:52;;;;;;;;;;;12.50;99.90;;;;;;5133847;27;20369;-65
2023/06/08 02:03:17;;;;;;;;;;;12.40;99.90;;;;;;5116508;27;19927;-65
2023/06/08 02:05:43;;;;;;;;;;;12.40;99.90;;;;;;5135010;27;19924;-65
2023/06/08 02:08:08;;;;;;;;;;;12.40;99.90;;;;;;5134705;27;20018;-64
2023/06/08 02:10:34;;;;;;;;;;;12.40;99.90;;;;;;5134692;27;19928;-63
2023/06/08 02:12:59;;;;;;;;;;;12.40;99.90;;;;;;5135089;27;20018;-64
2023/06/08 02:15:25;;;;;;;;;;;12.50;99.90;;;;;;5133602;27;20349;-65
2023/06/08 02:17:51;;;;;;;;;;;12.50;99.90;;;;;;5116633;27;19923;-65
2023/06/08 02:20:17;;;;;;;;;;;12.50;99.90;;;;;;5134508;27;19927;-64
2023/06/08 02:22:44;;;;;;;;;;;12.50;99.90;;;;;;5133447;27;20010;-64
2023/06/08 02:25:09;;;;;;;;;;;12.50;99.90;;;;;;5132960;27;19972;-64
2023/06/08 02:27:36;;;;;;;;;;;12.50;99.90;;;;;;5134634;27;19924;-64
2023/06/08 02:30:02;;;;;;;;;;;12.50;99.90;;;;;;5134046;27;19920;-64
2023/06/08 02:32:32;;;;;;;;;;;12.50;99.90;;;;;;5133657;27;19988;-65
2023/06/08 02:34:59;;;;;;;;;;;12.50;99.90;;;;;;5134366;27;19927;-64
2023/06/08 02:37:24;;;;;;;;;;;12.50;99.90;;;;;;5133949;27;19935;-65
2023/06/08 02:39:50;;;;;;;;;;;12.40;99.90;;;;;;5134048;27;19924;-65
2023/06/08 02:42:18;;;;;;;;;;;12.50;99.90;;;;;;5134084;27;19919;-65
2023/06/08 02:44:44;;;;;;;;;;;12.50;99.90;;;;;;5133119;27;19926;-65
2023/06/08 02:47:10;;;;;;;;;;;12.40;99.90;;;;;;5134572;27;19919;-64
2023/06/08 02:49:36;;;;;;;;;;;12.50;99.90;;;;;;5134264;27;20356;-64
2023/06/08 02:52:01;;;;;;;;;;;12.50;99.90;;;;;;5133106;27;19923;-65
2023/06/08 02:54:27;;;;;;;;;;;12.50;99.90;;;;;;5133382;27;19942;-65
2023/06/08 02:56:53;;;;;;;;;;;12.50;99.90;;;;;;5134021;27;19946;-64
2023/06/08 02:59:19;;;;;;;;;;;12.50;99.90;;;;;;5133742;27;19954;-65
2023/06/08 03:01:53;;;;;;;;;;;12.40;99.90;;;;;;5133176;27;19923;-65
2023/06/08 03:04:26;;;;;;;;;;;12.40;99.90;;;;;;5133464;27;20368;-64
2023/06/08 03:06:53;;;;;;;;;;;12.50;99.90;;;;;;5133931;27;19919;-64
2023/06/08 03:09:28;;;;;;;;;;;12.40;99.90;;;;;;5133293;27;20368;-64
2023/06/08 03:11:54;;;;;;;;;;;12.40;99.90;;;;;;5134035;27;20360;-64
2023/06/08 03:14:20;;;;;;;;;;;12.40;99.90;;;;;;5132129;27;20010;-64
2023/06/08 03:16:46;;;;;;;;;;;12.40;99.90;;;;;;5132521;27;20002;-64
2023/06/08 03:19:12;;;;;;;;;;;12.40;99.90;;;;;;5133655;27;19923;-64
2023/06/08 03:21:38;;;;;;;;;;;12.40;99.90;;;;;;5133294;27;20015;-64
2023/06/08 03:24:04;;;;;;;;;;;12.50;99.90;;;;;;5133213;27;19975;-67
2023/06/08 03:26:30;;;;;;;;;;;12.50;99.90;;;;;;5132987;27;20433;-64
2023/06/08 03:28:55;;;;;;;;;;;12.50;99.90;;;;;;5133594;27;20022;-63
2023/06/08 03:31:22;;;;;;;;;;;12.50;99.90;;;;;;5131954;27;20317;-63
2023/06/08 03:33:48;;;;;;;;;;;12.90;99.90;;;;;;5132691;27;19919;-63
2023/06/08 03:36:14;;;;;;;;;;;12.50;99.90;;;;;;5132551;28;19919;-65
2023/06/08 03:38:39;;;;;;;;;;;12.50;99.90;;;;;;5133226;27;20287;-63
2023/06/08 03:41:05;;;;;;;;;;;12.50;99.90;;;;;;5115162;28;19923;-65
2023/06/08 03:43:30;;;;;;;;;;;12.50;99.90;;;;;;5118248;27;20356;-65
2023/06/08 03:45:56;;;;;;;;;;;12.50;99.90;;;;;;5136224;27;19931;-64
2023/06/08 03:48:21;;;;;;;;;;;12.50;99.90;;;;;;5137278;27;20414;-65
2023/06/08 03:50:47;;;;;;;;;;;12.50;99.90;;;;;;5137675;27;19946;-64
2023/06/08 03:53:13;;;;;;;;;;;12.50;99.90;;;;;;5137451;27;20373;-63
2023/06/08 03:55:38;;;;;;;;;;;12.50;99.90;;;;;;5135851;27;19929;-65
2023/06/08 03:58:04;;;;;;;;;;;12.50;99.90;;;;;;5137512;27;19927;-65
2023/06/08 04:00:30;;;;;;;;;;;12.50;99.90;;;;;;5135926;27;19968;-65
2023/06/08 04:02:56;;;;;;;;;;;12.50;99.90;;;;;;5137355;27;20288;-64
2023/06/08 04:05:21;;;;;;;;;;;12.50;99.90;;;;;;5137058;27;19976;-66
2023/06/08 04:07:50;;;;;;;;;;;12.50;99.90;;;;;;5137235;27;19984;-64
2023/06/08 04:10:16;;;;;;;;;;;12.60;99.90;;;;;;5119676;27;19982;-65
2023/06/08 04:12:42;;;;;;;;;;;12.60;99.90;;;;;;5136916;27;20227;-64
2023/06/08 04:15:08;;;;;;;;;;;12.60;99.90;;;;;;5137297;27;20399;-64
2023/06/08 04:17:34;;;;;;;;;;;12.60;99.90;;;;;;5135733;27;20052;-64
2023/06/08 04:20:00;;;;;;;;;;;12.60;99.90;;;;;;5135983;27;19974;-65
2023/06/08 04:22:27;;;;;;;;;;;12.70;99.90;;;;;;5136715;27;19974;-65
2023/06/08 04:24:52;;;;;;;;;;;12.70;99.90;;;;;;5136885;27;20021;-65
2023/06/08 04:27:19;;;;;;;;;;;12.70;99.90;;;;;;5137001;27;20009;-65
2023/06/08 04:29:45;;;;;;;;;;;12.70;99.90;;;;;;5135312;27;19934;-64
2023/06/08 04:32:11;;;;;;;;;;;12.70;99.90;;;;;;5137087;27;19923;-65
2023/06/08 04:34:37;;;;;;;;;;;12.80;99.90;;;;;;5117933;27;20369;-64
2023/06/08 04:37:03;;;;;;;;;;;12.70;99.90;;;;;;5135308;27;19956;-65
2023/06/08 04:39:28;;;;;;;;;;;12.70;99.90;;;;;;5136224;27;19923;-64
2023/06/08 04:41:55;;;;;;;;;;;12.80;99.90;;;;;;5135321;27;20368;-64
2023/06/08 04:44:20;;;;;;;;;;;12.80;99.90;;;;;;5136227;27;20367;-65
2023/06/08 04:46:46;;;;;;;;;;;12.80;99.90;;;;;;5136114;27;19924;-66
2023/06/08 04:49:14;;;;;;;;;;;12.80;99.90;;;;;;5136432;27;19974;-65
2023/06/08 04:51:46;;;;;;;;;;;12.80;99.90;;;;;;5136106;27;19930;-65
2023/06/08 04:54:15;;;;;;;;;;;12.90;99.90;;;;;;5133516;27;20392;-65
2023/06/08 04:56:41;;;;;;;;;;;12.90;99.90;;;;;;5136140;27;19931;-64
2023/06/08 04:59:10;;;;;;;;;;;12.90;99.90;;;;;;5136233;27;19923;-64
2023/06/08 05:01:36;;;;;;;;;;;12.90;99.90;;;;;;5135862;27;19923;-65
2023/06/08 05:04:02;;;;;;;;;;;12.90;99.90;;;;;;5136074;27;20015;-63
2023/06/08 05:06:27;;;;;;;;;;;12.90;99.90;;;;;;5136444;27;20215;-64
2023/06/08 05:08:53;;;;;;;;;;;13.00;99.90;;;;;;5134846;27;19927;-64
2023/06/08 05:11:18;;;;;;;;;;;13.00;99.90;;;;;;5134965;27;19923;-66
2023/06/08 05:13:44;;;;;;;;;;;13.10;99.90;;;;;;5117586;27;19928;-63
2023/06/08 05:16:10;;;;;;;;;;;13.00;99.90;;;;;;5134886;27;19923;-64
2023/06/08 05:18:36;;;;;;;;;;;13.10;99.90;;;;;;5134701;27;19930;-65
2023/06/08 05:21:02;;;;;;;;;;;13.10;99.90;;;;;;5134826;27;19923;-65
2023/06/08 05:23:27;;;;;;;;;;;13.10;99.90;;;;;;5136176;27;19930;-65
2023/06/08 05:25:53;;;;;;;;;;;13.10;99.90;;;;;;5135380;27;19927;-64
2023/06/08 05:28:18;;;;;;;;;;;13.10;99.90;;;;;;5135849;27;19923;-64
2023/06/08 05:30:44;;;;;;;;;;;13.20;99.90;;;;;;5134501;27;19928;-64
2023/06/08 05:33:10;;;;;;;;;;;13.20;99.90;;;;;;5134432;27;19945;-66
2023/06/08 05:35:36;;;;;;;;;;;13.20;99.90;;;;;;5135477;27;19923;-65
2023/06/08 05:38:02;;;;;;;;;;;13.20;99.90;;;;;;5135486;27;19924;-65
2023/06/08 05:40:27;;;;;;;;;;;13.20;99.90;;;;;;5135523;27;19949;-66
2023/06/08 05:42:53;;;;;;;;;;;13.30;99.90;;;;;;5168755;27;19935;-65
2023/06/08 05:45:18;;;;;;;;;;;13.30;99.90;;;;;;5135361;27;20323;-64
2023/06/08 05:47:44;;;;;;;;;;;13.40;99.90;;;;;;5135061;27;19999;-64
2023/06/08 05:50:09;;;;;;;;;;;13.40;99.90;;;;;;5134410;27;19923;-65
2023/06/08 05:52:35;;;;;;;;;;;13.40;99.90;;;;;;5135080;27;19981;-64
2023/06/08 05:55:01;;;;;;;;;;;13.50;99.90;;;;;;5134881;27;19923;-65
2023/06/08 05:57:27;;;;;;;;;;;13.60;99.90;;;;;;5117026;27;20019;-65
2023/06/08 05:59:52;;;;;;;;;;;13.60;99.90;;;;;;5134448;27;19927;-65
2023/06/08 06:02:18;;;;;;;;;;;13.60;99.90;;;;;;5135132;27;19930;-65
2023/06/08 06:04:43;;;;;;;;;;;13.70;99.90;;;;;;5134788;27;20370;-65
2023/06/08 06:07:09;;;;;;;;;;;13.70;99.90;;;;;;5134829;27;19923;-67
2023/06/08 06:09:35;;;;;;;;;;;13.80;99.90;;;;;;5134871;27;19927;-65
2023/06/08 06:12:01;;;;;;;;;;;13.80;99.90;;;;;;5134516;27;20014;-64
2023/06/08 06:14:27;;;;;;;;;;;13.90;99.90;;;;;;5133604;27;20399;-65
2023/06/08 06:16:53;;;;;;;;;;;13.90;99.90;;;;;;5099227;27;19933;-65
2023/06/08 06:19:18;;;;;;;;;;;14.10;99.90;;;;;;5134643;27;20007;-63
2023/06/08 06:21:44;;;;;;;;;;;14.30;99.90;;;;;;5116112;27;20280;-65
2023/06/08 06:24:10;;;;;;;;;;;14.30;99.90;;;;;;5116247;27;19931;-66
2023/06/08 06:26:36;;;;;;;;;;;14.50;99.90;;;;;;5134382;27;19937;-66
2023/06/08 06:29:01;;;;;;;;;;;14.80;99.90;;;;;;5133043;27;19923;-65
2023/06/08 06:31:27;;;;;;;;;;;15.10;99.90;;;;;;5134796;27;20372;-65
2023/06/08 06:33:52;;;;;;;;;;;15.80;99.90;;;;;;5133924;27;19972;-67
2023/06/08 06:36:18;;;;;;;;;;;16.50;99.90;;;;;;5134114;27;19930;-67
2023/06/08 06:38:45;;;;;;;;;;;17.40;99.90;;;;;;5133098;27;20043;-67
2023/06/08 06:41:10;;;;;;;;;;;18.30;99.90;;;;;;5134325;27;19923;-67
2023/06/08 06:43:36;;;;;;;;;;;19.00;99.90;;;;;;5133206;27;20026;-67
2023/06/08 06:46:02;;;;;;;;;;;19.70;99.90;;;;;;5133864;27;19923;-68
2023/06/08 06:48:28;;;;;;;;;;;19.80;99.90;;;;;;5133163;27;20291;-67
2023/06/08 06:50:54;;;;;;;;;;;19.90;99.90;;;;;;5132634;27;20018;-67
2023/06/08 06:53:19;;;;;;;;;;;20.00;99.90;;;;;;5132907;27;19931;-68
2023/06/08 06:55:45;;;;;;;;;;;20.10;99.90;;;;;;5132011;27;19923;-67
2023/06/08 06:58:12;;;;;;;;;;;;;;;;;;5133950;27;19923;-67
2023/06/08 07:00:39;;;;;;;;;;;;;;;;;;5132988;27;19984;-67
2023/06/08 07:03:05;;;;;;;;;;;20.50;99.90;;;;;;5149794;27;20356;-67
2023/06/08 07:05:30;;;;;;;;;;;21.90;99.90;;;;;;5132526;27;19980;-67
2023/06/08 07:07:56;;;;;;;;;;;;;;;;;;5132537;27;20387;-66
2023/06/08 07:10:22;;;;;;;;;;;22.20;99.90;;;;;;5133746;27;19923;-67
2023/06/08 07:12:48;;;;;;;;;;;22.30;99.90;;;;;;5132465;27;19923;-68
2023/06/08 07:15:13;;;;;;;;;;;22.40;99.80;;;;;;5133783;27;19923;-68
2023/06/08 07:17:39;;;;;;;;;;;22.70;99.20;;;;;;5131986;27;20374;-67
2023/06/08 07:20:05;;;;;;;;;;;23.00;98.90;;;;;;5133325;27;19923;-68
2023/06/08 07:22:31;;;;;;;;;;;22.80;99.20;;;;;;5132254;27;19924;-67
2023/06/08 07:24:56;;;;;;;;;;;22.80;98.60;;;;;;5131546;27;19930;-68
2023/06/08 07:27:22;;;;;;;;;;;23.00;99.80;;;;;;5133382;27;19970;-67
2023/06/08 07:29:48;;;;;;;;;;;23.10;99.10;;;;;;5115347;27;19972;-67
2023/06/08 07:32:13;;;;;;;;;;;23.20;98.80;;;;;;5132031;27;19991;-67
2023/06/08 07:34:39;;;;;;;;;;;23.20;99.10;;;;;;5133822;27;19965;-66
2023/06/08 07:37:05;;;;;;;;;;;22.90;98.40;;;;;;5131835;27;19928;-67
2023/06/08 07:39:30;;;;;;;;;;;22.80;98.40;;;;;;5133415;27;19948;-68
2023/06/08 07:41:56;;;;;;;;;;;23.00;98.00;;;;;;5133079;28;19923;-68
2023/06/08 07:44:22;;;;;;;;;;;23.50;98.80;;;;;;5098266;28;20262;-67
2023/06/08 07:46:47;;;;;;;;;;;23.60;98.60;;;;;;5132021;28;20380;-67
2023/06/08 07:49:13;;;;;;;;;;;23.30;98.90;;;;;;5131916;28;20006;-67
2023/06/08 07:51:38;;;;;;;;;;;23.50;97.60;;;;;;5133276;27;19923;-68
2023/06/08 07:54:04;;;;;;;;;;;23.80;98.90;;;;;;5131893;28;19943;-69
2023/06/08 07:56:30;;;;;;;;;;;;;;;;;;5131850;28;19924;-67
2023/06/08 07:58:56;;;;;;;;;;;;;;;;;;5132820;28;19924;-69
2023/06/08 08:01:22;;;;;;;;;;;;;;;;;;5166731;27;19927;-69
2023/06/08 08:03:48;;;;;;;;;;;24.10;97.70;;;;;;5133263;27;19924;-67
2023/06/08 08:06:14;;;;;;;;;;;24.80;98.10;;;;;;5132984;27;19976;-67
2023/06/08 08:08:40;;;;;;;;;;;24.90;96.50;;;;;;5132172;28;19928;-67
2023/06/08 08:11:05;;;;;;;;;;;24.90;96.50;;;;;;5132914;28;19923;-67
2023/06/08 08:13:31;;;;;;;;;;;24.90;95.80;;;;;;5132040;28;20366;-68
2023/06/08 08:15:56;;;;;;;;;;;24.90;95.80;;;;;;5131789;28;19923;-67
2023/06/08 08:18:22;;;;;;;;;;;25.20;96.10;;;;;;5132999;28;19971;-67
2023/06/08 08:20:48;;;;;;;;;;;25.10;95.90;;;;;;5132954;27;19923;-67
2023/06/08 08:23:13;;;;;;;;;;;25.00;95.90;;;;;;5133004;28;19923;-69
2023/06/08 08:25:40;;;;;;;;;;;24.90;96.30;;;;;;5133008;27;20070;-67
2023/06/08 08:28:06;;;;;;;;;;;25.00;96.10;;;;;;5132500;27;20014;-67
2023/06/08 08:30:32;;;;;;;;;;;25.50;96.90;;;;;;5135863;27;20061;-67
2023/06/08 08:32:58;;;;;;;;;;;;;;;;;;5135304;27;19930;-67
2023/06/08 08:35:28;;;;;;;;;;;25.70;95.40;;;;;;5136696;27;19948;-68
2023/06/08 08:37:55;;;;;;;;;;;26.00;94.50;;;;;;5136525;27;20364;-67
2023/06/08 08:40:20;;;;;;;;;;;25.90;95.10;;;;;;5136286;27;19924;-67
2023/06/08 08:42:56;;;;;;;;;;;25.90;94.90;;;;;;5118411;27;19946;-68
2023/06/08 08:45:23;;;;;;;;;;;26.10;94.60;;;;;;5118189;27;19924;-67
2023/06/08 08:47:53;;;;;;;;;;;26.20;94.10;;;;;;5135598;27;19930;-69
2023/06/08 08:50:19;;;;;;;;;;;26.10;94.80;;;;;;5135159;27;20375;-68
2023/06/08 08:52:53;;;;;;;;;;;26.10;94.10;;;;;;5136457;27;19927;-69
2023/06/08 08:55:27;;;;;;;;;;;26.10;94.70;;;;;;5134698;27;20014;-68
2023/06/08 08:57:53;;;;;;;;;;;25.70;94.60;;;;;;5136481;27;19928;-67
2023/06/08 09:00:19;;;;;;;;;;;25.50;94.80;;;;;;5135991;27;20242;-67
2023/06/08 09:02:45;;;;;;;;;;;25.70;94.70;;;;;;5136080;27;20353;-67
2023/06/08 09:05:11;;;;;;;;;;;25.90;94.30;;;;;;5135686;27;19974;-67
2023/06/08 09:07:37;;;;;;;;;;;25.70;94.20;;;;;;5136027;27;19930;-67
2023/06/08 09:10:12;;;;;;;;;;;25.80;94.40;;;;;;5135868;27;19924;-67
2023/06/08 09:12:41;;;;;;;;;;;26.00;94.60;;;;;;5134934;27;19923;-67
2023/06/08 09:15:11;;;;;;;;;;;26.10;94.40;;;;;;5117272;27;19930;-67
2023/06/08 09:17:37;;;;;;;;;;;25.90;94.30;;;;;;5117809;27;19924;-68
2023/06/08 09:20:12;;;;;;;;;;;25.80;94.50;;;;;;5135596;27;20023;-67
2023/06/08 09:22:38;;;;;;;;;;;25.70;94.00;;;;;;5135687;27;19923;-69
2023/06/08 09:25:04;;;;;;;;;;;25.70;94.50;;;;;;5169236;27;20013;-68
2023/06/08 09:27:31;;;;;;;;;;;25.80;94.60;;;;;;5169343;27;19923;-68
2023/06/08 09:29:57;;;;;;;;;;;25.90;94.30;;;;;;5117218;27;20448;-68
2023/06/08 09:32:33;;;;;;;;;;;25.90;94.00;;;;;;5117146;27;20053;-68
2023/06/08 09:35:01;;;;;;;;;;;25.80;94.10;;;;;;5135547;27;19924;-67
2023/06/08 09:37:29;;;;;;;;;;;25.80;93.90;;;;;;5135252;27;20015;-67
2023/06/08 09:39:55;;;;;;;;;;;25.50;93.90;;;;;;5134017;27;20068;-67
2023/06/08 09:42:21;;;;;;;;;;;25.20;94.10;;;;;;5134992;27;20000;-68
2023/06/08 09:44:46;;;;;;;;;;;25.30;94.10;;;;;;5134124;27;19930;-67
2023/06/08 09:47:23;;;;;;;;;;;25.00;94.20;;;;;;5134925;27;19973;-67
2023/06/08 09:49:50;;;;;;;;;;;25.10;94.40;;;;;;5117201;27;19989;-67
2023/06/08 09:52:18;;;;;;;;;;;25.30;94.60;;;;;;5134119;27;19924;-68
2023/06/08 09:54:45;;;;;;;;;;;24.90;94.50;;;;;;5151189;27;20433;-68
2023/06/08 09:57:11;;;;;;;;;;;24.90;94.40;;;;;;5134953;27;19934;-65
2023/06/08 09:59:39;;;;;;;;;;;24.90;94.40;;;;;;5135196;27;19926;-66
2023/06/08 10:02:17;;;;;;;;;;;24.30;94.70;;;;;;5135077;27;19968;-67
2023/06/08 10:04:45;;;;;;;;;;;23.70;95.00;;;;;;5134944;27;20027;-68
2023/06/08 10:07:17;;;;;;;;;;;23.60;95.50;;;;;;5134669;27;20283;-68
2023/06/08 10:09:45;;;;;;;;;;;23.50;95.40;;;;;;5134004;27;20405;-66
2023/06/08 10:12:10;;;;;;;;;;;23.30;95.70;;;;;;5134592;27;19978;-66
2023/06/08 10:14:36;;;;;;;;;;;23.30;95.90;;;;;;5134626;27;19974;-67
2023/06/08 10:17:02;;;;;;;;;;;23.30;95.80;;;;;;5134689;27;19949;-66
2023/06/08 10:19:28;;;;;;;;;;;23.20;95.80;;;;;;5134419;27;19927;-67
2023/06/08 10:21:56;;;;;;;;;;;23.10;95.70;;;;;;5133658;27;19934;-66
2023/06/08 10:24:23;;;;;;;;;;;22.80;96.10;;;;;;5134222;27;19964;-66
2023/06/08 10:26:50;;;;;;;;;;;22.60;96.60;;;;;;5134394;27;19931;-66
2023/06/08 10:29:16;;;;;;;;;;;22.70;97.10;;;;;;5133190;27;19930;-66
2023/06/08 10:31:42;;;;;;;;;;;22.80;97.30;;;;;;5134604;27;19923;-66
2023/06/08 10:34:09;;;;;;;;;;;22.90;96.70;;;;;;5134545;27;19984;-67
2023/06/08 10:36:42;;;;;;;;;;;22.70;96.20;;;;;;5134345;27;19930;-67
2023/06/08 10:39:10;;;;;;;;;;;22.70;96.70;;;;;;5133494;27;20284;-67
2023/06/08 10:41:37;;;;;;;;;;;22.70;96.70;;;;;;5134022;27;20007;-67
2023/06/08 10:44:03;;;;;;;;;;;22.60;96.60;;;;;;5134696;27;19972;-67
2023/06/08 10:46:41;;;;;;;;;;;22.40;97.20;;;;;;5133820;27;19923;-68
2023/06/08 10:49:07;;;;;;;;;;;22.30;96.80;;;;;;5133047;27;20269;-67
2023/06/08 10:51:45;;;;;;;;;;;22.20;97.00;;;;;;5131889;27;19953;-67
2023/06/08 10:54:20;;;;;;;;;;;22.20;97.30;;;;;;5134222;27;20182;-67
2023/06/08 10:56:51;;;;;;;;;;;22.10;97.80;;;;;;5133069;27;19924;-67
2023/06/08 10:59:36;;;;;;;;;;;22.00;97.20;;;;;;5132577;27;19930;-67
2023/06/08 11:02:02;;;;;;;;;;;22.00;97.40;;;;;;5134000;27;19924;-67
2023/06/08 11:04:30;;;;;;;;;;;21.90;97.90;;;;;;5132631;27;19923;-67
2023/06/08 11:06:59;;;;;;;;;;;21.90;97.60;;;;;;5133646;27;19923;-67
2023/06/08 11:09:25;;;;;;;;;;;21.70;97.50;;;;;;5133476;27;19981;-66
2023/06/08 11:11:51;;;;;;;;;;;21.70;97.60;;;;;;5133893;27;19966;-66
2023/06/08 11:14:20;;;;;;;;;;;21.70;97.80;;;;;;5133851;27;20430;-66
2023/06/08 11:16:52;;;;;;;;;;;21.90;98.10;;;;;;5133750;27;19923;-66
2023/06/08 11:19:19;;;;;;;;;;;22.00;97.90;;;;;;5133757;27;19924;-66
2023/06/08 11:21:50;;;;;;;;;;;22.00;97.30;;;;;;5133610;27;20006;-66
2023/06/08 11:24:16;;;;;;;;;;;22.10;97.10;;;;;;5132642;27;19974;-66
2023/06/08 11:26:42;;;;;;;;;;;22.00;97.40;;;;;;5133212;27;19967;-68
2023/06/08 11:29:08;;;;;;;;;;;22.00;97.40;;;;;;5132583;27;19993;-67
2023/06/08 11:31:40;;;;;;;;;;;22.00;96.40;;;;;;5133444;27;20014;-67
2023/06/08 11:34:06;;;;;;;;;;;21.80;96.40;;;;;;5133637;27;19967;-66
2023/06/08 11:36:32;;;;;;;;;;;21.70;97.50;;;;;;5115203;28;19923;-66
2023/06/08 11:38:57;;;;;;;;;;;21.70;97.90;;;;;;5132188;27;20318;-66
2023/06/08 11:41:23;;;;;;;;;;;21.70;97.50;;;;;;5133084;27;20012;-66
2023/06/08 11:43:51;;;;;;;;;;;21.60;97.20;;;;;;5133398;28;19973;-66
2023/06/08 11:46:18;;;;;;;;;;;21.50;97.50;;;;;;5132206;28;20034;-68
2023/06/08 11:48:44;;;;;;;;;;;21.50;97.70;;;;;;5131810;28;19923;-67
2023/06/08 11:51:09;;;;;;;;;;;21.50;97.80;;;;;;5132162;28;19924;-67
2023/06/08 11:53:35;;;;;;;;;;;21.50;98.00;;;;;;5132983;28;19931;-67
2023/06/08 11:56:01;;;;;;;;;;;21.60;97.80;;;;;;5133466;27;20372;-69
2023/06/08 11:58:27;;;;;;;;;;;21.60;97.90;;;;;;5132995;27;19923;-70
2023/06/08 12:01:07;;;;;;;;;;;21.70;97.70;;;;;;5133167;27;19932;-66
2023/06/08 12:03:45;;;;;;;;;;;21.70;98.00;;;;;;5134701;27;19930;-67
2023/06/08 12:06:12;;;;;;;;;;;21.50;98.10;;;;;;5153481;27;20322;-67
2023/06/08 12:08:39;;;;;;;;;;;21.70;98.40;;;;;;5135698;27;19967;-66
2023/06/08 12:11:08;;;;;;;;;;;21.40;98.00;;;;;;5135957;27;19927;-67
2023/06/08 12:13:34;;;;;;;;;;;21.40;98.00;;;;;;5136946;27;20358;-68
2023/06/08 12:16:05;;;;;;;;;;;21.30;97.90;;;;;;5137145;27;19931;-66
2023/06/08 12:18:36;;;;;;;;;;;21.30;98.20;;;;;;5136947;27;19971;-67
2023/06/08 12:21:03;;;;;;;;;;;21.20;98.00;;;;;;5136245;27;19967;-66
2023/06/08 12:23:28;;;;;;;;;;;21.20;98.20;;;;;;5135841;27;19923;-66
2023/06/08 12:25:54;;;;;;;;;;;21.30;98.20;;;;;;5135686;27;19923;-66
2023/06/08 12:28:22;;;;;;;;;;;21.30;98.10;;;;;;5137075;27;19923;-66
2023/06/08 12:30:48;;;;;;;;;;;21.30;98.40;;;;;;5136417;27;19923;-66
2023/06/08 12:33:18;;;;;;;;;;;21.20;98.30;;;;;;5136967;27;20030;-66
2023/06/08 12:35:45;;;;;;;;;;;21.30;98.00;;;;;;5152802;27;20509;-66
2023/06/08 12:38:10;;;;;;;;;;;21.20;97.70;;;;;;5135813;27;20299;-67
2023/06/08 12:40:36;;;;;;;;;;;21.20;98.00;;;;;;5135366;27;19924;-66
2023/06/08 12:43:02;;;;;;;;;;;21.00;98.40;;;;;;5136712;27;19923;-66
2023/06/08 12:45:28;;;;;;;;;;;21.00;98.70;;;;;;5135375;27;19931;-66
2023/06/08 12:47:53;;;;;;;;;;;21.10;99.10;;;;;;5136293;27;19923;-67
2023/06/08 12:50:25;;;;;;;;;;;21.20;98.40;;;;;;5135585;27;20022;-67
2023/06/08 12:52:51;;;;;;;;;;;21.10;98.60;;;;;;5136023;27;20445;-66
2023/06/08 12:55:17;;;;;;;;;;;21.10;98.60;;;;;;5136078;27;19971;-66
2023/06/08 12:57:43;;;;;;;;;;;21.10;99.00;;;;;;5135155;27;20014;-67
2023/06/08 13:00:10;;;;;;;;;;;21.10;98.80;;;;;;5136354;27;19930;-67
2023/06/08 13:02:35;;;;;;;;;;;21.10;98.90;;;;;;5134850;27;19923;-66
2023/06/08 13:05:01;;;;;;;;;;;21.00;98.50;;;;;;5136342;27;19983;-67
2023/06/08 13:07:26;;;;;;;;;;;20.90;98.40;;;;;;5134864;27;19934;-66
2023/06/08 13:09:53;;;;;;;;;;;20.90;98.60;;;;;;5135844;27;20566;-69
2023/06/08 13:12:18;;;;;;;;;;;21.00;98.80;;;;;;5117994;27;19946;-66
2023/06/08 13:14:44;;;;;;;;;;;20.90;98.60;;;;;;5134960;27;19927;-67
2023/06/08 13:17:10;;;;;;;;;;;20.80;98.70;;;;;;5136050;27;19923;-67
2023/06/08 13:19:35;;;;;;;;;;;20.70;98.70;;;;;;5134701;27;19929;-67
2023/06/08 13:22:01;;;;;;;;;;;20.70;98.60;;;;;;5135922;27;19930;-67
2023/06/08 13:24:26;;;;;;;;;;;20.70;99.20;;;;;;5134877;27;19924;-66
2023/06/08 13:26:54;;;;;;;;;;;20.80;98.80;;;;;;5135437;27;20025;-66
2023/06/08 13:29:21;;;;;;;;;;;20.80;99.20;;;;;;5134452;27;20434;-67
2023/06/08 13:31:46;;;;;;;;;;;20.90;98.80;;;;;;5135324;27;19924;-67
2023/06/08 13:34:12;;;;;;;;;;;21.00;98.20;;;;;;5135540;27;19946;-66
2023/06/08 13:36:39;;;;;;;;;;;20.90;98.50;;;;;;5134106;27;19988;-67
2023/06/08 13:39:04;;;;;;;;;;;21.00;98.50;;;;;;5135499;27;19933;-67
2023/06/08 13:41:35;;;;;;;;;;;21.00;98.60;;;;;;5135388;27;19923;-65
2023/06/08 13:44:01;;;;;;;;;;;21.00;98.60;;;;;;5135090;27;19919;-67
2023/06/08 13:46:27;;;;;;;;;;;21.00;98.20;;;;;;5135387;27;19931;-70
2023/06/08 13:48:52;;;;;;;;;;;21.00;98.10;;;;;;5133898;27;20434;-68
2023/06/08 13:51:18;;;;;;;;;;;21.00;98.50;;;;;;5135313;27;20018;-67
2023/06/08 13:53:43;;;;;;;;;;;21.00;98.80;;;;;;5116736;27;19923;-67
2023/06/08 13:56:09;;;;;;;;;;;21.00;98.70;;;;;;5135337;27;19924;-66
2023/06/08 13:58:35;;;;;;;;;;;21.00;98.50;;;;;;5134247;27;19924;-66
2023/06/08 14:01:01;;;;;;;;;;;20.80;99.00;;;;;;5133811;27;19935;-67
2023/06/08 14:03:26;;;;;;;;;;;20.90;98.90;;;;;;5134865;27;19970;-67
2023/06/08 14:05:52;;;;;;;;;;;20.90;98.60;;;;;;5116318;27;19980;-66
2023/06/08 14:08:17;;;;;;;;;;;20.80;98.20;;;;;;5133903;27;19946;-67
2023/06/08 14:10:43;;;;;;;;;;;20.90;97.70;;;;;;5134536;27;19967;-67
2023/06/08 14:13:09;;;;;;;;;;;20.90;98.00;;;;;;5133843;27;20371;-67
2023/06/08 14:15:34;;;;;;;;;;;20.80;97.70;;;;;;5134815;27;19954;-65
2023/06/08 14:18:00;;;;;;;;;;;20.80;98.10;;;;;;5134227;27;19924;-67